KHZX

Isedor Iverson Airport

Mc Gregor, Minnesota, USA
METAR KHZX 211436Z AUTO 15005KT 10SM CLR 18/05 A3012 RMK AO2
Observed Flight Rules
May-21 @ 14:36 UTC (14 minutes ago) Visual Flight Rules
Wind Visibility Clouds
150° at 5 knots 10 miles
  • Clear skies
Temperatures Readings
Current 18°C / 64°F
Dewpoint 5°C / 41°F
Humidity 43%
Altimeter 30.12" Hg
Pressure 1020 hPa
Elevation 374
METAR KHZX 211436Z AUTO 15005KT 10SM CLR 18/05 A3012 RMK AO2
Observed Flight Rules
May-21 @ 14:36 UTC
(14 minutes ago)
VFR
Wind Visibility
150° at 5 knots 10 miles
Clouds
  • Clear skies
Temperature Dewpoint
18°C / 64°F 5°C / 41°F
Humidity Altimeter Pressure
43% 30.12" Hg 1020 hPa